sensor_id;sensor_type;location;lat;lon;timestamp;temperature;humidity
35497;DHT22;21609;49.298;6.844;2023-06-14T00:01:17;23.80;45.00
35497;DHT22;21609;49.298;6.844;2023-06-14T00:03:45;23.80;45.00
35497;DHT22;21609;49.298;6.844;2023-06-14T00:06:12;23.80;45.10
35497;DHT22;21609;49.298;6.844;2023-06-14T00:08:38;23.80;45.20
35497;DHT22;21609;49.298;6.844;2023-06-14T00:11:05;23.80;45.10
35497;DHT22;21609;49.298;6.844;2023-06-14T00:13:31;23.80;45.00
35497;DHT22;21609;49.298;6.844;2023-06-14T00:15:56;23.80;45.10
35497;DHT22;21609;49.298;6.844;2023-06-14T00:18:22;23.80;45.30
35497;DHT22;21609;49.298;6.844;2023-06-14T00:20:49;23.80;45.20
35497;DHT22;21609;49.298;6.844;2023-06-14T00:23:15;23.70;45.20
35497;DHT22;21609;49.298;6.844;2023-06-14T00:25:40;23.80;45.20
35497;DHT22;21609;49.298;6.844;2023-06-14T00:28:06;23.70;45.20
35497;DHT22;21609;49.298;6.844;2023-06-14T00:30:32;23.70;45.30
35497;DHT22;21609;49.298;6.844;2023-06-14T00:32:57;23.70;45.50
35497;DHT22;21609;49.298;6.844;2023-06-14T00:35:23;23.70;45.40
35497;DHT22;21609;49.298;6.844;2023-06-14T00:37:49;23.70;45.40
35497;DHT22;21609;49.298;6.844;2023-06-14T00:40:14;23.70;45.30
35497;DHT22;21609;49.298;6.844;2023-06-14T00:42:40;23.70;45.50
35497;DHT22;21609;49.298;6.844;2023-06-14T00:45:06;23.70;45.60
35497;DHT22;21609;49.298;6.844;2023-06-14T00:47:31;23.70;45.60
35497;DHT22;21609;49.298;6.844;2023-06-14T00:49:57;23.70;45.40
35497;DHT22;21609;49.298;6.844;2023-06-14T00:52:24;23.70;45.50
35497;DHT22;21609;49.298;6.844;2023-06-14T00:54:50;23.60;45.50
35497;DHT22;21609;49.298;6.844;2023-06-14T00:57:16;23.60;45.70
35497;DHT22;21609;49.298;6.844;2023-06-14T00:59:44;23.70;45.60
35497;DHT22;21609;49.298;6.844;2023-06-14T01:02:11;23.60;45.60
35497;DHT22;21609;49.298;6.844;2023-06-14T01:04:38;23.60;45.60
35497;DHT22;21609;49.298;6.844;2023-06-14T01:12:48;23.60;45.80
35497;DHT22;21609;49.298;6.844;2023-06-14T01:15:16;23.60;46.00
35497;DHT22;21609;49.298;6.844;2023-06-14T01:17:44;23.60;45.90
35497;DHT22;21609;49.298;6.844;2023-06-14T01:20:12;23.60;45.70
35497;DHT22;21609;49.298;6.844;2023-06-14T01:22:50;23.60;45.90
35497;DHT22;21609;49.298;6.844;2023-06-14T01:25:17;23.60;45.90
35497;DHT22;21609;49.298;6.844;2023-06-14T01:27:55;23.60;45.70
35497;DHT22;21609;49.298;6.844;2023-06-14T01:30:23;23.60;45.90
35497;DHT22;21609;49.298;6.844;2023-06-14T01:32:51;23.60;45.90
35497;DHT22;21609;49.298;6.844;2023-06-14T01:35:17;23.50;46.00
35497;DHT22;21609;49.298;6.844;2023-06-14T01:37:43;23.60;46.00
35497;DHT22;21609;49.298;6.844;2023-06-14T01:40:12;23.50;46.10
35497;DHT22;21609;49.298;6.844;2023-06-14T01:42:39;23.50;46.00
35497;DHT22;21609;49.298;6.844;2023-06-14T01:45:06;23.50;45.90
35497;DHT22;21609;49.298;6.844;2023-06-14T01:47:33;23.50;46.00
35497;DHT22;21609;49.298;6.844;2023-06-14T01:49:59;23.50;45.90
35497;DHT22;21609;49.298;6.844;2023-06-14T01:52:24;23.50;46.00
35497;DHT22;21609;49.298;6.844;2023-06-14T01:54:50;23.50;46.00
35497;DHT22;21609;49.298;6.844;2023-06-14T01:57:16;23.50;45.80
35497;DHT22;21609;49.298;6.844;2023-06-14T01:59:42;23.50;46.00
35497;DHT22;21609;49.298;6.844;2023-06-14T02:02:08;23.50;46.20
35497;DHT22;21609;49.298;6.844;2023-06-14T02:04:34;23.50;46.10
35497;DHT22;21609;49.298;6.844;2023-06-14T02:07:00;23.50;46.30
35497;DHT22;21609;49.298;6.844;2023-06-14T02:09:25;23.50;46.20
35497;DHT22;21609;49.298;6.844;2023-06-14T02:11:51;23.50;46.10
35497;DHT22;21609;49.298;6.844;2023-06-14T02:14:16;23.50;46.40
35497;DHT22;21609;49.298;6.844;2023-06-14T02:16:43;23.50;46.20
35497;DHT22;21609;49.298;6.844;2023-06-14T02:19:18;23.40;46.20
35497;DHT22;21609;49.298;6.844;2023-06-14T02:21:44;23.40;46.20
35497;DHT22;21609;49.298;6.844;2023-06-14T02:24:10;23.40;46.70
35497;DHT22;21609;49.298;6.844;2023-06-14T02:26:36;23.40;46.50
35497;DHT22;21609;49.298;6.844;2023-06-14T02:29:04;23.40;46.60
35497;DHT22;21609;49.298;6.844;2023-06-14T02:31:31;23.40;46.50
35497;DHT22;21609;49.298;6.844;2023-06-14T02:33:56;23.40;46.30
35497;DHT22;21609;49.298;6.844;2023-06-14T02:36:22;23.40;46.40
35497;DHT22;21609;49.298;6.844;2023-06-14T02:38:47;23.40;46.60
35497;DHT22;21609;49.298;6.844;2023-06-14T02:41:13;23.40;46.60
35497;DHT22;21609;49.298;6.844;2023-06-14T02:43:38;23.40;46.60
35497;DHT22;21609;49.298;6.844;2023-06-14T02:46:04;23.40;46.60
35497;DHT22;21609;49.298;6.844;2023-06-14T02:48:30;23.40;46.60
35497;DHT22;21609;49.298;6.844;2023-06-14T02:50:55;23.40;46.60
35497;DHT22;21609;49.298;6.844;2023-06-14T02:53:22;23.40;46.60
35497;DHT22;21609;49.298;6.844;2023-06-14T02:55:47;23.30;46.60
35497;DHT22;21609;49.298;6.844;2023-06-14T02:58:14;23.40;46.50
35497;DHT22;21609;49.298;6.844;2023-06-14T03:00:39;23.30;46.60
35497;DHT22;21609;49.298;6.844;2023-06-14T03:03:06;23.30;46.60
35497;DHT22;21609;49.298;6.844;2023-06-14T03:05:47;23.30;46.60
35497;DHT22;21609;49.298;6.844;2023-06-14T03:08:15;23.30;46.70
35497;DHT22;21609;49.298;6.844;2023-06-14T03:10:48;23.30;46.50
35497;DHT22;21609;49.298;6.844;2023-06-14T03:13:14;23.30;46.70
35497;DHT22;21609;49.298;6.844;2023-06-14T03:15:41;23.30;46.70
35497;DHT22;21609;49.298;6.844;2023-06-14T03:18:08;23.30;46.90
35497;DHT22;21609;49.298;6.844;2023-06-14T03:20:35;23.30;46.80
35497;DHT22;21609;49.298;6.844;2023-06-14T03:23:04;23.30;46.90
35497;DHT22;21609;49.298;6.844;2023-06-14T03:25:31;23.30;46.90
35497;DHT22;21609;49.298;6.844;2023-06-14T03:27:58;23.30;46.70
35497;DHT22;21609;49.298;6.844;2023-06-14T03:30:23;23.20;46.80
35497;DHT22;21609;49.298;6.844;2023-06-14T03:32:49;23.20;46.80
35497;DHT22;21609;49.298;6.844;2023-06-14T03:35:17;23.20;46.70
35497;DHT22;21609;49.298;6.844;2023-06-14T03:37:46;23.30;46.90
35497;DHT22;21609;49.298;6.844;2023-06-14T03:40:13;23.20;46.80
35497;DHT22;21609;49.298;6.844;2023-06-14T03:42:39;23.20;46.80
35497;DHT22;21609;49.298;6.844;2023-06-14T03:45:05;23.20;46.80
35497;DHT22;21609;49.298;6.844;2023-06-14T03:47:31;23.20;47.00
35497;DHT22;21609;49.298;6.844;2023-06-14T03:49:57;23.20;47.00
35497;DHT22;21609;49.298;6.844;2023-06-14T03:52:23;23.20;46.90
35497;DHT22;21609;49.298;6.844;2023-06-14T03:54:49;23.20;46.90
35497;DHT22;21609;49.298;6.844;2023-06-14T03:57:15;23.20;46.90
35497;DHT22;21609;49.298;6.844;2023-06-14T03:59:40;23.20;47.00
35497;DHT22;21609;49.298;6.844;2023-06-14T04:02:07;23.20;46.80
35497;DHT22;21609;49.298;6.844;2023-06-14T04:04:32;23.20;47.10
35497;DHT22;21609;49.298;6.844;2023-06-14T04:06:58;23.20;47.10
35497;DHT22;21609;49.298;6.844;2023-06-14T04:09:25;23.20;46.90
35497;DHT22;21609;49.298;6.844;2023-06-14T04:11:55;23.20;47.00
35497;DHT22;21609;49.298;6.844;2023-06-14T04:14:21;23.20;47.30
35497;DHT22;21609;49.298;6.844;2023-06-14T04:16:47;23.20;47.10
35497;DHT22;21609;49.298;6.844;2023-06-14T04:19:13;23.20;47.00
35497;DHT22;21609;49.298;6.844;2023-06-14T04:21:39;23.20;47.10
35497;DHT22;21609;49.298;6.844;2023-06-14T04:24:05;23.20;46.90
35497;DHT22;21609;49.298;6.844;2023-06-14T04:26:32;23.20;46.90
35497;DHT22;21609;49.298;6.844;2023-06-14T04:28:59;23.10;47.00
35497;DHT22;21609;49.298;6.844;2023-06-14T04:31:30;23.20;46.90
35497;DHT22;21609;49.298;6.844;2023-06-14T04:33:59;23.20;47.00
35497;DHT22;21609;49.298;6.844;2023-06-14T04:36:25;23.20;47.10
35497;DHT22;21609;49.298;6.844;2023-06-14T04:38:52;23.10;47.00
35497;DHT22;21609;49.298;6.844;2023-06-14T04:41:22;23.20;47.00
35497;DHT22;21609;49.298;6.844;2023-06-14T04:43:49;23.20;46.70
35497;DHT22;21609;49.298;6.844;2023-06-14T04:46:15;23.20;46.90
35497;DHT22;21609;49.298;6.844;2023-06-14T04:48:41;23.10;46.60
35497;DHT22;21609;49.298;6.844;2023-06-14T04:51:10;23.10;47.10
35497;DHT22;21609;49.298;6.844;2023-06-14T04:53:36;23.20;47.30
35497;DHT22;21609;49.298;6.844;2023-06-14T04:56:02;23.20;47.40
35497;DHT22;21609;49.298;6.844;2023-06-14T04:58:29;23.10;47.30
35497;DHT22;21609;49.298;6.844;2023-06-14T05:00:55;23.20;47.50
35497;DHT22;21609;49.298;6.844;2023-06-14T05:03:22;23.10;46.70
35497;DHT22;21609;49.298;6.844;2023-06-14T05:05:49;23.20;47.40
35497;DHT22;21609;49.298;6.844;2023-06-14T05:08:16;23.20;46.90
35497;DHT22;21609;49.298;6.844;2023-06-14T05:10:41;23.20;46.90
35497;DHT22;21609;49.298;6.844;2023-06-14T05:13:07;23.20;47.20
35497;DHT22;21609;49.298;6.844;2023-06-14T05:15:33;23.20;46.80
35497;DHT22;21609;49.298;6.844;2023-06-14T05:17:59;23.20;46.90
35497;DHT22;21609;49.298;6.844;2023-06-14T05:20:25;23.20;47.30
35497;DHT22;21609;49.298;6.844;2023-06-14T05:22:53;23.20;47.10
35497;DHT22;21609;49.298;6.844;2023-06-14T05:25:22;23.20;47.20
35497;DHT22;21609;49.298;6.844;2023-06-14T05:27:48;23.20;46.60
35497;DHT22;21609;49.298;6.844;2023-06-14T05:30:15;23.00;44.50
35497;DHT22;21609;49.298;6.844;2023-06-14T05:32:41;22.60;43.20
35497;DHT22;21609;49.298;6.844;2023-06-14T05:35:07;22.40;42.90
35497;DHT22;21609;49.298;6.844;2023-06-14T05:37:33;22.40;43.50
35497;DHT22;21609;49.298;6.844;2023-06-14T05:39:58;22.50;43.40
35497;DHT22;21609;49.298;6.844;2023-06-14T05:42:24;22.60;43.80
35497;DHT22;21609;49.298;6.844;2023-06-14T05:44:49;22.60;43.70
35497;DHT22;21609;49.298;6.844;2023-06-14T05:47:15;22.60;43.30
35497;DHT22;21609;49.298;6.844;2023-06-14T05:49:40;22.60;43.40
35497;DHT22;21609;49.298;6.844;2023-06-14T05:52:07;22.60;43.70
35497;DHT22;21609;49.298;6.844;2023-06-14T05:54:32;22.60;43.60
35497;DHT22;21609;49.298;6.844;2023-06-14T05:56:58;22.60;45.60
35497;DHT22;21609;49.298;6.844;2023-06-14T05:59:29;22.70;45.50
35497;DHT22;21609;49.298;6.844;2023-06-14T06:01:55;22.70;45.90
35497;DHT22;21609;49.298;6.844;2023-06-14T06:04:20;22.70;45.80
35497;DHT22;21609;49.298;6.844;2023-06-14T06:06:46;22.80;45.90
35497;DHT22;21609;49.298;6.844;2023-06-14T06:09:13;22.70;45.80
35497;DHT22;21609;49.298;6.844;2023-06-14T06:11:40;22.80;46.10
35497;DHT22;21609;49.298;6.844;2023-06-14T06:14:05;22.80;46.10
35497;DHT22;21609;49.298;6.844;2023-06-14T06:16:31;22.80;46.60
35497;DHT22;21609;49.298;6.844;2023-06-14T06:18:57;22.80;46.20
35497;DHT22;21609;49.298;6.844;2023-06-14T06:21:22;22.80;46.30
35497;DHT22;21609;49.298;6.844;2023-06-14T06:23:48;22.80;46.50
35497;DHT22;21609;49.298;6.844;2023-06-14T06:26:13;22.90;46.30
35497;DHT22;21609;49.298;6.844;2023-06-14T06:28:39;22.90;46.30
35497;DHT22;21609;49.298;6.844;2023-06-14T06:31:05;22.90;46.40
35497;DHT22;21609;49.298;6.844;2023-06-14T06:33:30;22.90;46.50
35497;DHT22;21609;49.298;6.844;2023-06-14T06:35:56;22.90;46.50
35497;DHT22;21609;49.298;6.844;2023-06-14T06:38:21;22.90;46.60
35497;DHT22;21609;49.298;6.844;2023-06-14T06:40:47;22.90;46.60
35497;DHT22;21609;49.298;6.844;2023-06-14T06:43:13;22.90;46.40
35497;DHT22;21609;49.298;6.844;2023-06-14T06:45:39;22.90;46.60
35497;DHT22;21609;49.298;6.844;2023-06-14T06:48:05;22.90;46.50
35497;DHT22;21609;49.298;6.844;2023-06-14T06:50:31;22.90;46.70
35497;DHT22;21609;49.298;6.844;2023-06-14T06:52:57;22.90;46.70
35497;DHT22;21609;49.298;6.844;2023-06-14T06:55:22;23.00;46.50
35497;DHT22;21609;49.298;6.844;2023-06-14T06:57:48;22.90;46.60
35497;DHT22;21609;49.298;6.844;2023-06-14T07:00:15;23.00;46.90
35497;DHT22;21609;49.298;6.844;2023-06-14T07:02:41;22.90;46.70
35497;DHT22;21609;49.298;6.844;2023-06-14T07:05:07;23.00;46.70
35497;DHT22;21609;49.298;6.844;2023-06-14T07:07:34;23.00;46.80
35497;DHT22;21609;49.298;6.844;2023-06-14T07:10:00;23.00;46.70
35497;DHT22;21609;49.298;6.844;2023-06-14T07:12:25;23.00;46.70
35497;DHT22;21609;49.298;6.844;2023-06-14T07:14:51;23.00;46.90
35497;DHT22;21609;49.298;6.844;2023-06-14T07:17:17;23.00;46.80
35497;DHT22;21609;49.298;6.844;2023-06-14T07:19:42;23.00;46.80
35497;DHT22;21609;49.298;6.844;2023-06-14T07:22:08;23.00;46.90
35497;DHT22;21609;49.298;6.844;2023-06-14T07:24:33;23.00;46.80
35497;DHT22;21609;49.298;6.844;2023-06-14T07:27:01;23.00;47.00
35497;DHT22;21609;49.298;6.844;2023-06-14T07:29:27;23.00;46.80
35497;DHT22;21609;49.298;6.844;2023-06-14T07:31:53;23.00;46.70
35497;DHT22;21609;49.298;6.844;2023-06-14T07:34:18;23.10;46.90
35497;DHT22;21609;49.298;6.844;2023-06-14T07:36:44;23.10;46.90
35497;DHT22;21609;49.298;6.844;2023-06-14T07:39:10;23.10;46.90
35497;DHT22;21609;49.298;6.844;2023-06-14T07:41:35;23.10;46.80
35497;DHT22;21609;49.298;6.844;2023-06-14T07:44:01;23.00;46.80
35497;DHT22;21609;49.298;6.844;2023-06-14T07:46:26;23.10;46.70
35497;DHT22;21609;49.298;6.844;2023-06-14T07:48:52;23.10;46.40
35497;DHT22;21609;49.298;6.844;2023-06-14T07:51:18;23.10;46.30
35497;DHT22;21609;49.298;6.844;2023-06-14T07:53:43;23.10;46.70
35497;DHT22;21609;49.298;6.844;2023-06-14T07:56:09;23.10;46.40
35497;DHT22;21609;49.298;6.844;2023-06-14T07:58:34;23.10;46.30
35497;DHT22;21609;49.298;6.844;2023-06-14T08:01:00;23.10;46.20
35497;DHT22;21609;49.298;6.844;2023-06-14T08:03:27;23.10;46.30
35497;DHT22;21609;49.298;6.844;2023-06-14T08:05:52;23.10;46.60
35497;DHT22;21609;49.298;6.844;2023-06-14T08:08:18;23.20;46.30
35497;DHT22;21609;49.298;6.844;2023-06-14T08:10:44;23.20;46.50
35497;DHT22;21609;49.298;6.844;2023-06-14T08:13:09;23.20;46.20
35497;DHT22;21609;49.298;6.844;2023-06-14T08:15:35;23.20;46.60
35497;DHT22;21609;49.298;6.844;2023-06-14T08:18:01;23.20;47.10
35497;DHT22;21609;49.298;6.844;2023-06-14T08:20:26;23.20;46.20
35497;DHT22;21609;49.298;6.844;2023-06-14T08:22:52;23.20;46.30
35497;DHT22;21609;49.298;6.844;2023-06-14T08:25:21;23.20;46.20
35497;DHT22;21609;49.298;6.844;2023-06-14T08:27:47;23.20;46.40
35497;DHT22;21609;49.298;6.844;2023-06-14T08:30:13;23.20;46.30
35497;DHT22;21609;49.298;6.844;2023-06-14T08:32:39;23.20;46.60
35497;DHT22;21609;49.298;6.844;2023-06-14T08:35:05;23.20;46.20
35497;DHT22;21609;49.298;6.844;2023-06-14T08:37:31;23.20;46.10
35497;DHT22;21609;49.298;6.844;2023-06-14T08:39:56;23.20;46.20
35497;DHT22;21609;49.298;6.844;2023-06-14T08:42:24;23.20;46.30
35497;DHT22;21609;49.298;6.844;2023-06-14T08:44:49;23.20;46.40
35497;DHT22;21609;49.298;6.844;2023-06-14T08:47:15;23.20;46.40
35497;DHT22;21609;49.298;6.844;2023-06-14T08:49:45;23.20;46.60
35497;DHT22;21609;49.298;6.844;2023-06-14T08:52:13;23.20;46.60
35497;DHT22;21609;49.298;6.844;2023-06-14T08:54:44;23.30;46.70
35497;DHT22;21609;49.298;6.844;2023-06-14T08:57:13;23.30;46.40
35497;DHT22;21609;49.298;6.844;2023-06-14T08:59:43;23.30;46.60
35497;DHT22;21609;49.298;6.844;2023-06-14T09:02:11;23.30;46.90
35497;DHT22;21609;49.298;6.844;2023-06-14T09:04:38;23.30;46.50
35497;DHT22;21609;49.298;6.844;2023-06-14T09:07:05;23.30;46.50
35497;DHT22;21609;49.298;6.844;2023-06-14T09:09:32;23.30;46.10
35497;DHT22;21609;49.298;6.844;2023-06-14T09:11:57;23.30;46.60
35497;DHT22;21609;49.298;6.844;2023-06-14T09:14:24;23.30;46.50
35497;DHT22;21609;49.298;6.844;2023-06-14T09:16:54;23.30;46.60
35497;DHT22;21609;49.298;6.844;2023-06-14T09:19:23;23.30;46.10
35497;DHT22;21609;49.298;6.844;2023-06-14T09:21:50;23.30;46.30
35497;DHT22;21609;49.298;6.844;2023-06-14T09:24:18;23.30;46.40
35497;DHT22;21609;49.298;6.844;2023-06-14T09:26:47;23.30;46.30
35497;DHT22;21609;49.298;6.844;2023-06-14T09:29:12;23.40;46.40
35497;DHT22;21609;49.298;6.844;2023-06-14T09:31:38;23.40;46.30
35497;DHT22;21609;49.298;6.844;2023-06-14T09:34:04;23.40;46.50
35497;DHT22;21609;49.298;6.844;2023-06-14T09:36:32;23.40;46.40
35497;DHT22;21609;49.298;6.844;2023-06-14T09:39:02;23.40;46.10
35497;DHT22;21609;49.298;6.844;2023-06-14T09:41:39;23.40;46.60
35497;DHT22;21609;49.298;6.844;2023-06-14T09:44:09;23.40;46.10
35497;DHT22;21609;49.298;6.844;2023-06-14T09:46:36;23.40;46.30
35497;DHT22;21609;49.298;6.844;2023-06-14T09:49:03;23.40;46.00
35497;DHT22;21609;49.298;6.844;2023-06-14T09:51:29;23.40;46.10
35497;DHT22;21609;49.298;6.844;2023-06-14T09:53:59;23.50;46.30
35497;DHT22;21609;49.298;6.844;2023-06-14T09:56:41;23.50;46.40
35497;DHT22;21609;49.298;6.844;2023-06-14T09:59:09;23.40;46.10
35497;DHT22;21609;49.298;6.844;2023-06-14T10:01:38;23.50;46.10
35497;DHT22;21609;49.298;6.844;2023-06-14T10:04:06;23.50;46.30
35497;DHT22;21609;49.298;6.844;2023-06-14T10:06:33;23.50;46.40
35497;DHT22;21609;49.298;6.844;2023-06-14T10:09:00;23.50;46.00
35497;DHT22;21609;49.298;6.844;2023-06-14T10:11:27;23.50;46.10
35497;DHT22;21609;49.298;6.844;2023-06-14T10:13:54;23.50;46.10
35497;DHT22;21609;49.298;6.844;2023-06-14T10:19:27;23.50;46.30
35497;DHT22;21609;49.298;6.844;2023-06-14T10:24:32;23.50;46.10
35497;DHT22;21609;49.298;6.844;2023-06-14T10:26:59;23.60;46.20
35497;DHT22;21609;49.298;6.844;2023-06-14T10:29:25;23.60;45.80
35497;DHT22;21609;49.298;6.844;2023-06-14T10:31:56;23.60;45.60
35497;DHT22;21609;49.298;6.844;2023-06-14T10:34:27;23.60;45.90
35497;DHT22;21609;49.298;6.844;2023-06-14T10:37:13;23.60;45.90
35497;DHT22;21609;49.298;6.844;2023-06-14T10:39:43;23.60;46.10
35497;DHT22;21609;49.298;6.844;2023-06-14T10:42:12;23.60;45.80
35497;DHT22;21609;49.298;6.844;2023-06-14T10:44:46;23.60;45.90
35497;DHT22;21609;49.298;6.844;2023-06-14T10:47:23;23.60;46.10
35497;DHT22;21609;49.298;6.844;2023-06-14T10:49:53;23.60;46.00
35497;DHT22;21609;49.298;6.844;2023-06-14T10:52:28;23.60;46.20
35497;DHT22;21609;49.298;6.844;2023-06-14T10:57:34;23.60;45.80
35497;DHT22;21609;49.298;6.844;2023-06-14T11:00:02;23.60;46.10
35497;DHT22;21609;49.298;6.844;2023-06-14T11:05:08;23.70;46.00
35497;DHT22;21609;49.298;6.844;2023-06-14T11:10:40;23.70;45.80
35497;DHT22;21609;49.298;6.844;2023-06-14T11:13:09;23.70;45.90
35497;DHT22;21609;49.298;6.844;2023-06-14T11:15:36;23.70;45.90
35497;DHT22;21609;49.298;6.844;2023-06-14T11:18:06;23.70;46.00
35497;DHT22;21609;49.298;6.844;2023-06-14T11:20:34;23.70;45.80
35497;DHT22;21609;49.298;6.844;2023-06-14T11:23:01;23.70;45.80
35497;DHT22;21609;49.298;6.844;2023-06-14T11:25:27;23.80;45.80
35497;DHT22;21609;49.298;6.844;2023-06-14T11:27:56;23.80;45.70
35497;DHT22;21609;49.298;6.844;2023-06-14T11:30:23;23.80;45.90
35497;DHT22;21609;49.298;6.844;2023-06-14T11:32:50;23.80;46.00
35497;DHT22;21609;49.298;6.844;2023-06-14T11:35:16;23.80;45.80
35497;DHT22;21609;49.298;6.844;2023-06-14T11:37:42;23.80;45.70
35497;DHT22;21609;49.298;6.844;2023-06-14T11:40:10;23.80;45.60
35497;DHT22;21609;49.298;6.844;2023-06-14T11:42:38;23.80;46.30
35497;DHT22;21609;49.298;6.844;2023-06-14T11:45:06;23.80;46.20
35497;DHT22;21609;49.298;6.844;2023-06-14T11:47:33;23.90;45.80
35497;DHT22;21609;49.298;6.844;2023-06-14T11:50:03;23.90;45.90
35497;DHT22;21609;49.298;6.844;2023-06-14T11:52:30;23.90;45.90
35497;DHT22;21609;49.298;6.844;2023-06-14T11:54:56;23.90;46.00
35497;DHT22;21609;49.298;6.844;2023-06-14T11:57:22;23.90;45.90
35497;DHT22;21609;49.298;6.844;2023-06-14T11:59:48;23.90;45.90
35497;DHT22;21609;49.298;6.844;2023-06-14T12:02:15;23.90;45.80
35497;DHT22;21609;49.298;6.844;2023-06-14T12:04:41;23.90;45.90
35497;DHT22;21609;49.298;6.844;2023-06-14T12:07:12;23.90;45.90
35497;DHT22;21609;49.298;6.844;2023-06-14T12:12:20;23.90;45.80
35497;DHT22;21609;49.298;6.844;2023-06-14T12:14:47;23.90;45.80
35497;DHT22;21609;49.298;6.844;2023-06-14T12:17:12;24.00;46.00
35497;DHT22;21609;49.298;6.844;2023-06-14T12:19:42;24.00;45.80
35497;DHT22;21609;49.298;6.844;2023-06-14T12:22:09;24.00;46.00
35497;DHT22;21609;49.298;6.844;2023-06-14T12:24:35;24.00;46.00
35497;DHT22;21609;49.298;6.844;2023-06-14T12:27:01;24.00;45.80
35497;DHT22;21609;49.298;6.844;2023-06-14T12:29:30;24.00;45.90
35497;DHT22;21609;49.298;6.844;2023-06-14T12:31:56;24.00;45.80
35497;DHT22;21609;49.298;6.844;2023-06-14T12:34:26;24.00;46.00
35497;DHT22;21609;49.298;6.844;2023-06-14T12:36:53;24.10;45.80
35497;DHT22;21609;49.298;6.844;2023-06-14T12:39:19;24.10;45.80
35497;DHT22;21609;49.298;6.844;2023-06-14T12:41:45;24.10;45.90
35497;DHT22;21609;49.298;6.844;2023-06-14T12:44:11;24.10;45.90
35497;DHT22;21609;49.298;6.844;2023-06-14T12:46:37;24.10;45.70
35497;DHT22;21609;49.298;6.844;2023-06-14T12:49:05;24.10;45.80
35497;DHT22;21609;49.298;6.844;2023-06-14T12:51:30;24.20;45.80
35497;DHT22;21609;49.298;6.844;2023-06-14T12:53:56;24.10;45.70
35497;DHT22;21609;49.298;6.844;2023-06-14T12:56:21;24.20;45.80
35497;DHT22;21609;49.298;6.844;2023-06-14T12:58:47;24.20;45.70
35497;DHT22;21609;49.298;6.844;2023-06-14T13:01:12;24.20;45.90
35497;DHT22;21609;49.298;6.844;2023-06-14T13:03:38;24.20;45.70
35497;DHT22;21609;49.298;6.844;2023-06-14T13:06:04;24.20;45.70
35497;DHT22;21609;49.298;6.844;2023-06-14T13:08:29;24.20;45.80
35497;DHT22;21609;49.298;6.844;2023-06-14T13:10:55;24.20;45.50
35497;DHT22;21609;49.298;6.844;2023-06-14T13:13:21;24.20;45.50
35497;DHT22;21609;49.298;6.844;2023-06-14T13:15:47;24.20;45.50
35497;DHT22;21609;49.298;6.844;2023-06-14T13:18:14;24.30;45.40
35497;DHT22;21609;49.298;6.844;2023-06-14T13:20:40;24.30;45.50
35497;DHT22;21609;49.298;6.844;2023-06-14T13:23:05;24.30;45.40
35497;DHT22;21609;49.298;6.844;2023-06-14T13:25:33;24.30;45.50
35497;DHT22;21609;49.298;6.844;2023-06-14T13:27:59;24.30;45.50
35497;DHT22;21609;49.298;6.844;2023-06-14T13:30:25;24.30;45.50
35497;DHT22;21609;49.298;6.844;2023-06-14T13:32:51;24.30;45.40
35497;DHT22;21609;49.298;6.844;2023-06-14T13:35:18;24.30;45.10
35497;DHT22;21609;49.298;6.844;2023-06-14T13:37:44;24.30;45.30
35497;DHT22;21609;49.298;6.844;2023-06-14T13:40:10;24.30;45.00
35497;DHT22;21609;49.298;6.844;2023-06-14T13:42:36;24.30;45.00
35497;DHT22;21609;49.298;6.844;2023-06-14T13:45:02;24.30;45.00
35497;DHT22;21609;49.298;6.844;2023-06-14T13:47:29;24.30;45.00
35497;DHT22;21609;49.298;6.844;2023-06-14T13:49:55;24.30;44.80
35497;DHT22;21609;49.298;6.844;2023-06-14T13:52:21;24.30;45.00
35497;DHT22;21609;49.298;6.844;2023-06-14T13:54:47;24.40;44.90
35497;DHT22;21609;49.298;6.844;2023-06-14T13:57:13;24.40;44.70
35497;DHT22;21609;49.298;6.844;2023-06-14T13:59:39;24.40;44.80
35497;DHT22;21609;49.298;6.844;2023-06-14T14:02:06;24.40;44.70
35497;DHT22;21609;49.298;6.844;2023-06-14T14:04:32;24.40;45.00
35497;DHT22;21609;49.298;6.844;2023-06-14T14:06:58;24.40;44.80
35497;DHT22;21609;49.298;6.844;2023-06-14T14:09:24;24.40;44.70
35497;DHT22;21609;49.298;6.844;2023-06-14T14:11:49;24.40;45.00
35497;DHT22;21609;49.298;6.844;2023-06-14T14:14:15;24.40;45.00
35497;DHT22;21609;49.298;6.844;2023-06-14T14:16:41;24.40;45.00
35497;DHT22;21609;49.298;6.844;2023-06-14T14:19:07;24.40;45.10
35497;DHT22;21609;49.298;6.844;2023-06-14T14:21:33;24.40;44.90
35497;DHT22;21609;49.298;6.844;2023-06-14T14:23:58;24.40;44.90
35497;DHT22;21609;49.298;6.844;2023-06-14T14:26:24;24.40;44.80
35497;DHT22;21609;49.298;6.844;2023-06-14T14:28:50;24.40;44.70
35497;DHT22;21609;49.298;6.844;2023-06-14T14:31:16;24.40;44.70
35497;DHT22;21609;49.298;6.844;2023-06-14T14:33:42;24.40;44.80
35497;DHT22;21609;49.298;6.844;2023-06-14T14:36:08;24.40;45.00
35497;DHT22;21609;49.298;6.844;2023-06-14T14:38:33;24.40;44.80
35497;DHT22;21609;49.298;6.844;2023-06-14T14:40:59;24.40;44.70
35497;DHT22;21609;49.298;6.844;2023-06-14T14:43:24;24.40;44.80
35497;DHT22;21609;49.298;6.844;2023-06-14T14:45:50;24.40;45.00
35497;DHT22;21609;49.298;6.844;2023-06-14T14:48:16;24.40;44.90
35497;DHT22;21609;49.298;6.844;2023-06-14T14:50:41;24.40;44.90
35497;DHT22;21609;49.298;6.844;2023-06-14T14:53:07;24.40;44.80
35497;DHT22;21609;49.298;6.844;2023-06-14T14:55:33;24.40;44.80
35497;DHT22;21609;49.298;6.844;2023-06-14T14:58:01;24.40;45.00
35497;DHT22;21609;49.298;6.844;2023-06-14T15:00:27;24.40;44.90
35497;DHT22;21609;49.298;6.844;2023-06-14T15:02:53;24.40;44.90
35497;DHT22;21609;49.298;6.844;2023-06-14T15:05:18;24.40;44.90
35497;DHT22;21609;49.298;6.844;2023-06-14T15:07:44;24.40;44.90
35497;DHT22;21609;49.298;6.844;2023-06-14T15:10:11;24.40;45.10
35497;DHT22;21609;49.298;6.844;2023-06-14T15:12:37;24.40;44.90
35497;DHT22;21609;49.298;6.844;2023-06-14T15:15:03;24.50;45.00
35497;DHT22;21609;49.298;6.844;2023-06-14T15:17:29;24.50;45.00
35497;DHT22;21609;49.298;6.844;2023-06-14T15:19:55;24.50;45.00
35497;DHT22;21609;49.298;6.844;2023-06-14T15:22:21;24.50;44.80
35497;DHT22;21609;49.298;6.844;2023-06-14T15:24:46;24.50;44.90
35497;DHT22;21609;49.298;6.844;2023-06-14T15:27:12;24.50;44.90
35497;DHT22;21609;49.298;6.844;2023-06-14T15:29:38;24.50;44.80
35497;DHT22;21609;49.298;6.844;2023-06-14T15:32:05;24.50;45.10
35497;DHT22;21609;49.298;6.844;2023-06-14T15:34:31;24.50;44.70
35497;DHT22;21609;49.298;6.844;2023-06-14T15:36:57;24.50;44.80
35497;DHT22;21609;49.298;6.844;2023-06-14T15:39:22;24.50;44.60
35497;DHT22;21609;49.298;6.844;2023-06-14T15:41:49;24.50;44.80
35497;DHT22;21609;49.298;6.844;2023-06-14T15:44:16;24.50;44.60
35497;DHT22;21609;49.298;6.844;2023-06-14T15:46:42;24.50;44.70
35497;DHT22;21609;49.298;6.844;2023-06-14T15:49:12;24.50;44.60